Time;durP1;ratioP1;P1;durP2;ratioP2;P2;SDS_P1;SDS_P2;PMS_P1;PMS_P2;Temp;Humidity;BMP_temperature;BMP_pressure;BME280_temperature;BME280_humidity;BME280_pressure;Samples;Min_cycle;Max_cycle;Signal;HPM_P1;HPM_P2
2024/04/10 00:02:21;;;;;;;0.35;0.10;;;13.90;99.90;;;;;;5382797;26;20040;-66
2024/04/10 00:04:48;;;;;;;0.82;0.30;;;13.70;99.90;;;;;;5382773;26;20346;-66
2024/04/10 00:07:14;;;;;;;0.17;0.10;;;13.70;99.90;;;;;;5382404;26;20446;-66
2024/04/10 00:09:41;;;;;;;0.90;0.10;;;13.50;99.90;;;;;;5381031;26;20012;-66
2024/04/10 00:12:07;;;;;;;0.73;0.10;;;13.70;99.90;;;;;;5362384;26;20466;-66
2024/04/10 00:14:37;;;;;;;2.10;0.28;;;13.80;99.90;;;;;;5377509;26;20438;-65
2024/04/10 00:17:03;;;;;;;0.73;0.08;;;13.50;99.90;;;;;;5367613;26;20012;-65
2024/04/10 00:19:28;;;;;;;1.55;0.28;;;13.60;99.90;;;;;;5365878;26;20408;-65
2024/04/10 00:21:54;;;;;;;0.73;0.00;;;13.40;99.90;;;;;;5362726;26;20004;-65
2024/04/10 00:24:21;;;;;;;0.50;0.00;;;13.40;99.90;;;;;;5364171;26;20019;-65
2024/04/10 00:26:50;;;;;;;0.88;0.10;;;13.50;99.90;;;;;;5371243;26;20078;-65
2024/04/10 00:29:16;;;;;;;1.85;0.20;;;13.50;99.90;;;;;;5363491;26;20330;-65
2024/04/10 00:31:42;;;;;;;0.95;0.10;;;13.60;99.90;;;;;;5359336;26;20004;-65
2024/04/10 00:34:07;;;;;;;2.28;0.10;;;13.40;99.90;;;;;;5378906;26;20004;-65
2024/04/10 00:36:33;;;;;;;0.40;0.10;;;13.50;99.90;;;;;;5379099;26;20416;-64
2024/04/10 00:38:59;;;;;;;3.33;0.10;;;13.40;99.90;;;;;;5377786;26;20004;-65
2024/04/10 00:41:25;;;;;;;3.35;0.40;;;13.30;99.90;;;;;;5353038;26;20351;-64
2024/04/10 00:43:50;;;;;;;0.68;0.13;;;12.80;1.00;;;;;;5372115;26;20007;-64
2024/04/10 00:46:21;;;;;;;0.20;0.00;;;12.50;1.00;;;;;;5374478;26;19994;-64
2024/04/10 00:48:49;;;;;;;0.65;0.10;;;12.00;1.00;;;;;;5369350;26;20031;-65
2024/04/10 00:51:22;;;;;;;0.30;0.10;;;12.30;1.00;;;;;;5376563;26;20011;-65
2024/04/10 00:53:49;;;;;;;0.47;0.25;;;12.10;1.00;;;;;;5380352;26;20019;-64
2024/04/10 00:56:16;;;;;;;2.40;0.20;;;12.40;1.00;;;;;;5375752;26;20058;-64
2024/04/10 00:58:42;;;;;;;0.30;0.00;;;12.00;1.00;;;;;;5370779;26;20004;-65
2024/04/10 01:01:13;;;;;;;1.42;0.10;;;12.20;1.00;;;;;;5372332;26;20070;-65
2024/04/10 01:03:39;;;;;;;1.80;0.10;;;12.10;1.00;;;;;;5363270;26;20033;-65
2024/04/10 01:06:06;;;;;;;0.52;0.15;;;12.20;1.00;;;;;;5359526;26;19996;-65
2024/04/10 01:08:33;;;;;;;0.63;0.00;;;;;;;;;;5371589;26;20036;-65
2024/04/10 01:11:00;;;;;;;2.28;0.10;;;12.30;1.00;;;;;;5348341;26;20086;-65
2024/04/10 01:13:27;;;;;;;2.20;0.10;;;12.50;1.00;;;;;;5334611;26;19997;-65
2024/04/10 01:15:52;;;;;;;0.35;0.00;;;12.40;99.90;;;;;;5365030;26;20817;-64
2024/04/10 01:18:18;;;;;;;0.73;0.20;;;12.50;1.00;;;;;;5372820;26;20015;-64
2024/04/10 01:20:44;;;;;;;1.23;0.10;;;12.30;1.00;;;;;;5377469;26;20004;-64
2024/04/10 01:23:09;;;;;;;2.65;0.30;;;12.20;1.00;;;;;;5363940;26;20683;-64
2024/04/10 01:25:35;;;;;;;1.85;0.40;;;11.90;1.00;;;;;;5364052;26;20012;-64
2024/04/10 01:28:01;;;;;;;1.60;0.22;;;11.90;1.00;;;;;;5357278;26;20056;-64
2024/04/10 01:30:27;;;;;;;0.90;0.10;;;11.70;1.00;;;;;;5364871;26;20011;-64
2024/04/10 01:32:52;;;;;;;0.25;0.10;;;11.80;1.00;;;;;;5370502;26;20015;-64
2024/04/10 01:35:18;;;;;;;0.38;0.08;;;11.60;1.00;;;;;;5371102;26;20458;-64
2024/04/10 01:37:44;;;;;;;0.63;0.03;;;11.70;1.00;;;;;;5357308;26;20001;-64
2024/04/10 01:40:10;;;;;;;1.00;0.00;;;11.80;1.00;;;;;;5349460;26;20016;-64
2024/04/10 01:42:36;;;;;;;0.25;0.00;;;11.80;1.00;;;;;;5357348;26;20398;-64
2024/04/10 01:45:03;;;;;;;0.38;0.00;;;11.60;1.00;;;;;;5347008;26;20116;-65
2024/04/10 01:47:29;;;;;;;0.10;0.00;;;11.70;1.00;;;;;;5371730;26;20023;-65
2024/04/10 01:49:55;;;;;;;0.10;0.10;;;11.80;1.00;;;;;;5362475;26;20004;-65
2024/04/10 01:52:21;;;;;;;0.00;0.00;;;11.80;1.00;;;;;;5368526;26;20001;-65
2024/04/10 01:54:46;;;;;;;0.30;0.00;;;11.80;1.00;;;;;;5360343;26;20004;-65
2024/04/10 01:57:12;;;;;;;0.00;0.00;;;11.70;1.00;;;;;;5373326;26;20009;-65
2024/04/10 01:59:38;;;;;;;0.73;0.00;;;11.70;1.00;;;;;;5379970;26;20015;-65
2024/04/10 02:02:04;;;;;;;0.00;0.00;;;11.90;1.00;;;;;;5367890;26;20015;-65
2024/04/10 02:04:29;;;;;;;1.15;0.10;;;11.80;1.00;;;;;;5360805;26;20108;-65
2024/04/10 02:06:55;;;;;;;0.13;0.00;;;12.00;1.00;;;;;;5376565;26;20000;-65
2024/04/10 02:09:21;;;;;;;0.10;0.10;;;12.00;99.90;;;;;;5368408;26;20082;-65
2024/04/10 02:11:47;;;;;;;0.10;0.00;;;12.10;99.90;;;;;;5366941;26;20009;-65
2024/04/10 02:14:12;;;;;;;0.73;0.00;;;12.00;99.90;;;;;;5353148;26;19996;-65
2024/04/10 02:16:40;;;;;;;0.80;0.10;;;11.80;99.90;;;;;;5358938;26;19997;-65
2024/04/10 02:19:05;;;;;;;0.13;0.00;;;11.80;99.90;;;;;;5353691;26;20000;-65
2024/04/10 02:21:31;;;;;;;0.08;0.00;;;11.90;99.90;;;;;;5357392;26;20037;-65
2024/04/10 02:23:56;;;;;;;0.00;0.00;;;12.00;99.90;;;;;;5344812;26;20013;-65
2024/04/10 02:26:22;;;;;;;0.00;0.00;;;12.00;99.90;;;;;;5370099;26;19996;-66
2024/04/10 02:28:48;;;;;;;0.28;0.10;;;12.00;99.90;;;;;;5345458;26;19997;-65
2024/04/10 02:31:13;;;;;;;0.73;0.10;;;12.00;99.90;;;;;;5371408;26;20008;-66
2024/04/10 02:33:39;;;;;;;0.10;0.00;;;12.10;99.90;;;;;;5378269;26;20008;-65
2024/04/10 02:36:06;;;;;;;0.00;0.00;;;12.20;99.90;;;;;;5378533;26;20008;-65
2024/04/10 02:38:33;;;;;;;0.03;0.03;;;12.30;99.90;;;;;;5348906;26;20425;-66
2024/04/10 02:40:59;;;;;;;0.20;0.00;;;12.30;99.90;;;;;;5375915;26;19996;-66
2024/04/10 02:43:31;;;;;;;0.10;0.00;;;12.40;99.90;;;;;;5363716;26;20033;-66
2024/04/10 02:45:58;;;;;;;0.00;0.00;;;12.40;99.90;;;;;;5339358;26;20001;-66
2024/04/10 02:48:24;;;;;;;0.95;0.00;;;12.30;99.90;;;;;;5374607;26;20004;-66
2024/04/10 02:50:50;;;;;;;0.00;0.00;;;12.20;99.90;;;;;;5372239;26;20005;-66
2024/04/10 02:53:16;;;;;;;0.20;0.00;;;12.40;99.90;;;;;;5381297;26;20043;-66
2024/04/10 02:55:46;;;;;;;0.38;0.10;;;12.50;99.90;;;;;;5382007;26;20078;-66
2024/04/10 02:58:12;;;;;;;0.55;0.00;;;12.50;99.90;;;;;;5375717;26;20361;-66
2024/04/10 03:00:50;;;;;;;1.13;0.00;;;12.50;99.90;;;;;;5369245;26;20019;-66
2024/04/10 03:03:16;;;;;;;0.85;0.10;;;12.60;99.90;;;;;;5356343;26;20012;-66
2024/04/10 03:05:44;;;;;;;0.00;0.00;;;12.60;99.90;;;;;;5356692;26;20001;-66
2024/04/10 03:08:12;;;;;;;0.00;0.00;;;12.60;99.90;;;;;;5381520;26;20016;-66
2024/04/10 03:10:39;;;;;;;0.30;0.00;;;12.60;99.90;;;;;;5381560;26;20004;-66
2024/04/10 03:13:05;;;;;;;0.40;0.10;;;12.70;99.90;;;;;;5383310;26;20011;-66
2024/04/10 03:15:31;;;;;;;0.10;0.10;;;12.70;99.90;;;;;;5370557;26;20005;-66
2024/04/10 03:17:57;;;;;;;0.00;0.00;;;12.70;99.90;;;;;;5378741;26;20008;-66
2024/04/10 03:20:23;;;;;;;0.63;0.08;;;12.70;99.90;;;;;;5371692;26;20087;-66
2024/04/10 03:22:49;;;;;;;0.90;0.00;;;12.80;99.90;;;;;;5353389;26;22367;-66
2024/04/10 03:25:15;;;;;;;0.00;0.00;;;12.70;99.90;;;;;;5383529;26;20004;-66
2024/04/10 03:27:42;;;;;;;0.10;0.00;;;12.80;99.90;;;;;;5358615;26;20019;-65
2024/04/10 03:30:08;;;;;;;0.40;0.00;;;12.90;99.90;;;;;;5361273;26;20004;-65
2024/04/10 03:32:34;;;;;;;0.10;0.10;;;12.80;99.90;;;;;;5371001;26;20035;-65
2024/04/10 03:35:00;;;;;;;0.20;0.17;;;12.80;1.00;;;;;;5358903;26;20001;-66
2024/04/10 03:37:26;;;;;;;1.15;0.20;;;12.80;1.00;;;;;;5367443;26;20004;-65
2024/04/10 03:39:52;;;;;;;0.60;0.25;;;12.70;99.90;;;;;;5354017;26;20019;-64
2024/04/10 03:42:18;;;;;;;0.80;0.20;;;12.70;99.90;;;;;;5366095;26;20011;-64
2024/04/10 03:44:44;;;;;;;1.38;0.10;;;12.60;99.90;;;;;;5349824;26;20048;-64
2024/04/10 03:47:10;;;;;;;1.10;0.13;;;12.80;99.90;;;;;;5383219;26;20004;-64
2024/04/10 03:49:35;;;;;;;0.57;0.20;;;12.80;99.90;;;;;;5378813;26;20081;-64
2024/04/10 03:52:01;;;;;;;1.25;0.10;;;12.80;99.90;;;;;;5382533;26;20015;-64
2024/04/10 03:54:27;;;;;;;0.55;0.10;;;12.80;99.90;;;;;;5382815;26;20442;-64
2024/04/10 03:56:53;;;;;;;1.88;0.20;;;12.90;99.90;;;;;;5358096;26;20000;-64
2024/04/10 03:59:19;;;;;;;2.28;0.10;;;13.00;99.90;;;;;;5381700;26;20004;-64
2024/04/10 04:01:45;;;;;;;0.30;0.10;;;13.00;99.90;;;;;;5373221;26;20461;-64
2024/04/10 04:04:11;;;;;;;1.08;0.30;;;13.00;99.90;;;;;;5372435;26;20004;-64
2024/04/10 04:06:36;;;;;;;0.22;0.22;;;13.00;99.90;;;;;;5381654;26;20446;-64
2024/04/10 04:09:02;;;;;;;1.45;0.28;;;13.10;99.90;;;;;;5350360;26;20005;-64
2024/04/10 04:11:28;;;;;;;1.05;0.20;;;13.10;99.90;;;;;;5367959;26;20019;-64
2024/04/10 04:13:54;;;;;;;0.57;0.17;;;13.10;99.90;;;;;;5380833;26;20004;-64
2024/04/10 04:16:20;;;;;;;0.13;0.10;;;13.10;99.90;;;;;;5379761;26;20001;-64
2024/04/10 04:18:45;;;;;;;0.30;0.17;;;13.10;99.90;;;;;;5382091;26;20012;-65
2024/04/10 04:21:11;;;;;;;0.77;0.10;;;13.10;99.90;;;;;;5368416;26;20011;-64
2024/04/10 04:23:37;;;;;;;3.40;0.30;;;12.80;99.90;;;;;;5382462;26;20000;-64
2024/04/10 04:26:05;;;;;;;0.20;0.20;;;12.80;99.90;;;;;;5369685;26;20012;-64
2024/04/10 04:28:31;;;;;;;1.25;0.10;;;12.60;99.90;;;;;;5362591;26;20000;-65
2024/04/10 04:30:57;;;;;;;2.53;0.20;;;12.60;99.90;;;;;;5372773;26;20000;-64
2024/04/10 04:33:23;;;;;;;1.10;0.60;;;12.60;99.90;;;;;;5365609;26;20074;-65
2024/04/10 04:35:48;;;;;;;0.60;0.13;;;12.60;99.90;;;;;;5360017;26;20047;-64
2024/04/10 04:38:15;;;;;;;1.02;0.17;;;12.70;99.90;;;;;;5381625;26;20004;-64
2024/04/10 04:40:40;;;;;;;1.10;0.05;;;12.70;99.90;;;;;;5380662;26;20005;-64
2024/04/10 04:43:09;;;;;;;0.85;0.25;;;12.60;99.90;;;;;;5380461;26;20000;-65
2024/04/10 04:45:35;;;;;;;1.27;0.22;;;12.50;99.90;;;;;;5382588;26;20015;-64
2024/04/10 04:48:00;;;;;;;4.07;0.82;;;12.30;1.00;;;;;;5357812;26;20033;-64
2024/04/10 04:50:26;;;;;;;0.88;0.10;;;12.30;1.00;;;;;;5371323;26;20019;-64
2024/04/10 04:52:52;;;;;;;0.60;0.20;;;12.20;1.00;;;;;;5368493;26;20435;-65
2024/04/10 04:55:18;;;;;;;3.00;0.35;;;12.10;1.00;;;;;;5380559;26;20007;-64
2024/04/10 04:57:44;;;;;;;1.08;0.50;;;12.10;12.70;;;;;;5382084;26;20032;-64
2024/04/10 05:00:14;;;;;;;1.63;0.25;;;12.10;1.00;;;;;;5379948;26;20000;-64
2024/04/10 05:02:40;;;;;;;4.97;0.50;;;12.00;1.00;;;;;;5381927;26;20005;-65
2024/04/10 05:05:15;;;;;;;1.17;0.20;;;12.00;1.00;;;;;;5382436;26;20004;-64
2024/04/10 05:07:42;;;;;;;3.28;0.40;;;12.00;1.00;;;;;;5377356;26;20098;-64
2024/04/10 05:10:09;;;;;;;1.60;0.10;;;12.00;1.00;;;;;;5362172;26;20078;-65
2024/04/10 05:12:37;;;;;;;0.85;0.17;;;11.90;1.00;;;;;;5362470;26;20348;-65
2024/04/10 05:15:03;;;;;;;0.75;0.28;;;11.90;1.00;;;;;;5365671;26;20052;-65
2024/04/10 05:17:28;;;;;;;0.73;0.20;;;11.90;1.00;;;;;;5372649;26;20054;-65
2024/04/10 05:19:55;;;;;;;1.58;0.10;;;12.00;1.00;;;;;;5381617;26;20000;-64
2024/04/10 05:22:20;;;;;;;1.25;0.30;;;12.10;1.00;;;;;;5381963;26;20012;-64
2024/04/10 05:24:46;;;;;;;0.20;0.20;;;12.00;1.00;;;;;;5380852;26;20077;-64
2024/04/10 05:27:22;;;;;;;1.13;0.30;;;11.80;1.00;;;;;;5380827;26;20019;-64
2024/04/10 05:29:59;;;;;;;0.77;0.20;;;11.70;1.00;;;;;;5379880;26;20022;-64
2024/04/10 05:32:28;;;;;;;3.15;0.20;;;11.80;1.00;;;;;;5381301;26;20036;-65
2024/04/10 05:34:55;;;;;;;1.13;0.10;;;11.70;1.00;;;;;;5368993;26;20016;-65
2024/04/10 05:37:22;;;;;;;0.68;0.10;;;11.90;1.00;;;;;;5380137;26;20004;-65
2024/04/10 05:40:06;;;;;;;0.80;0.28;;;11.90;1.00;;;;;;5376961;26;20004;-65
2024/04/10 05:42:38;;;;;;;4.60;0.50;;;11.80;1.00;;;;;;5380984;26;20016;-65
2024/04/10 05:45:07;;;;;;;1.33;0.10;;;11.80;1.00;;;;;;5370822;26;20088;-64
2024/04/10 05:47:33;;;;;;;0.88;0.20;;;11.80;1.00;;;;;;5377104;26;20011;-64
2024/04/10 05:49:59;;;;;;;0.75;0.20;;;11.90;1.00;;;;;;5376087;26;20027;-64
2024/04/10 05:52:25;;;;;;;2.47;0.20;;;11.90;1.00;;;;;;5375299;26;20028;-65
2024/04/10 05:54:51;;;;;;;2.50;0.20;;;12.00;1.00;;;;;;5375553;26;20000;-64
2024/04/10 05:57:24;;;;;;;0.65;0.10;;;11.80;1.00;;;;;;5365753;26;20358;-64
2024/04/10 05:59:54;;;;;;;1.63;0.68;;;11.90;1.00;;;;;;5368003;26;20011;-64
2024/04/10 06:02:21;;;;;;;0.30;0.15;;;11.90;1.00;;;;;;5378273;26;20022;-56
2024/04/10 06:04:50;;;;;;;2.92;1.50;;;11.80;1.00;;;;;;5370504;26;19996;-54
2024/04/10 06:07:16;;;;;;;0.93;0.47;;;11.80;1.00;;;;;;5378094;26;20032;-56
2024/04/10 06:09:42;;;;;;;1.40;0.25;;;11.80;1.00;;;;;;5369190;26;20007;-56
2024/04/10 06:12:07;;;;;;;1.40;0.50;;;11.80;1.00;;;;;;5379817;26;20000;-55
2024/04/10 06:14:33;;;;;;;1.50;0.55;;;11.90;1.00;;;;;;5379854;26;20119;-55
2024/04/10 06:16:59;;;;;;;0.50;0.40;;;11.90;1.00;;;;;;5360427;26;20061;-55
2024/04/10 06:19:25;;;;;;;2.95;0.38;;;11.90;1.00;;;;;;5374305;26;20464;-57
2024/04/10 06:21:51;;;;;;;0.73;0.25;;;11.90;1.00;;;;;;5364132;26;20001;-57
2024/04/10 06:24:18;;;;;;;1.58;0.20;;;12.00;1.00;;;;;;5371056;26;20004;-57
2024/04/10 06:26:44;;;;;;;3.65;0.30;;;12.00;1.00;;;;;;5379866;26;20001;-57
2024/04/10 06:29:10;;;;;;;5.93;0.93;;;12.00;1.00;;;;;;5379878;26;20011;-57
2024/04/10 06:31:35;;;;;;;6.78;0.28;;;12.10;99.90;;;;;;5379397;26;20346;-57
2024/04/10 06:34:01;;;;;;;0.43;0.00;;;12.20;99.90;;;;;;5360989;26;20011;-57
2024/04/10 06:36:28;;;;;;;1.27;0.20;;;12.20;99.90;;;;;;5372222;26;20000;-57
2024/04/10 06:38:53;;;;;;;2.05;0.20;;;12.10;99.90;;;;;;5379541;26;20007;-57
2024/04/10 06:41:19;;;;;;;0.90;0.10;;;12.20;99.90;;;;;;5379347;26;20403;-54
2024/04/10 06:43:45;;;;;;;0.47;0.20;;;12.20;99.90;;;;;;5348315;26;20004;-56
2024/04/10 06:46:10;;;;;;;1.45;0.40;;;12.20;99.90;;;;;;5377614;26;20004;-54
2024/04/10 06:48:36;;;;;;;0.43;0.22;;;12.20;99.90;;;;;;5379508;26;20019;-55
2024/04/10 06:51:03;;;;;;;0.75;0.20;;;12.30;99.90;;;;;;5379226;26;20001;-57
2024/04/10 06:53:29;;;;;;;1.30;0.10;;;12.30;99.90;;;;;;5379202;26;20327;-57
2024/04/10 06:55:57;;;;;;;0.30;0.20;;;12.40;99.90;;;;;;5379134;26;20000;-57
2024/04/10 06:58:24;;;;;;;1.25;0.10;;;12.50;99.90;;;;;;5379063;26;20004;-57
2024/04/10 07:01:02;;;;;;;4.93;0.88;;;12.40;99.90;;;;;;5379271;26;20473;-53
2024/04/10 07:03:28;;;;;;;0.77;0.20;;;12.30;99.90;;;;;;5378697;26;20033;-56
2024/04/10 07:06:11;;;;;;;1.58;0.22;;;12.50;99.90;;;;;;5377220;26;20527;-58
2024/04/10 07:08:39;;;;;;;0.88;0.10;;;12.20;99.90;;;;;;5354168;26;20023;-55
2024/04/10 07:11:14;;;;;;;2.80;0.63;;;12.50;99.90;;;;;;5377033;26;20454;-54
2024/04/10 07:13:50;;;;;;;;;;;12.40;99.90;;;;;;5379327;26;20008;-56
2024/04/10 07:16:16;;;;;;;1.38;0.20;;;12.30;99.90;;;;;;5379930;26;19926;-55
2024/04/10 07:18:44;;;;;;;0.35;0.20;;;12.30;99.90;;;;;;5382190;26;20019;-55
2024/04/10 07:21:12;;;;;;;0.20;0.10;;;12.20;99.90;;;;;;5378321;26;20004;-57
2024/04/10 07:23:39;;;;;;;0.32;0.10;;;12.00;99.90;;;;;;5368492;26;20078;-57
2024/04/10 07:26:17;;;;;;;3.30;0.50;;;11.90;99.90;;;;;;5382242;26;20136;-55
2024/04/10 07:28:47;;;;;;;4.45;0.50;;;11.80;99.90;;;;;;5380497;26;20008;-53
2024/04/10 07:31:19;;;;;;;0.85;0.25;;;12.00;1.00;;;;;;5382275;26;20015;-57
2024/04/10 07:33:45;;;;;;;4.10;0.40;;;12.00;99.90;;;;;;5381978;26;20000;-55
2024/04/10 07:36:12;;;;;;;0.95;0.40;;;11.90;99.90;;;;;;5382202;26;20000;-57
2024/04/10 07:38:38;;;;;;;1.33;0.80;;;11.80;99.90;;;;;;5382378;26;20015;-56
2024/04/10 07:41:05;;;;;;;1.90;0.32;;;11.70;1.00;;;;;;5381786;26;20019;-55
2024/04/10 07:43:32;;;;;;;0.22;0.20;;;11.80;1.00;;;;;;5382106;26;20011;-56
2024/04/10 07:46:06;;;;;;;0.60;0.30;;;11.70;1.00;;;;;;5380016;26;20008;-56
2024/04/10 07:48:32;;;;;;;0.63;0.30;;;11.60;1.00;;;;;;5382254;26;20008;-55
2024/04/10 07:50:57;;;;;;;1.65;0.20;;;11.70;1.00;;;;;;5373755;26;20011;-56
2024/04/10 07:53:23;;;;;;;1.75;0.22;;;11.80;1.00;;;;;;5363830;26;20004;-56
2024/04/10 07:55:49;;;;;;;2.83;0.73;;;11.90;1.00;;;;;;5361056;26;20321;-57
2024/04/10 07:58:14;;;;;;;5.78;0.60;;;12.10;99.90;;;;;;5375810;26;20418;-55
2024/04/10 08:00:40;;;;;;;1.98;0.55;;;12.10;99.90;;;;;;5381986;26;20123;-56
2024/04/10 08:03:05;;;;;;;3.22;0.57;;;12.20;99.90;;;;;;5357205;26;20086;-57
2024/04/10 08:05:31;;;;;;;0.52;0.40;;;12.30;99.90;;;;;;5381854;26;20004;-57
2024/04/10 08:07:57;;;;;;;2.80;0.70;;;12.30;99.90;;;;;;5365999;26;20418;-56
2024/04/10 08:10:23;;;;;;;3.40;0.52;;;12.40;99.90;;;;;;5372827;26;20486;-57
2024/04/10 08:12:49;;;;;;;0.98;0.50;;;12.50;99.90;;;;;;5381448;26;20081;-55
2024/04/10 08:15:15;;;;;;;0.95;0.57;;;12.20;99.90;;;;;;5379888;26;20141;-57
2024/04/10 08:17:41;;;;;;;1.50;0.57;;;12.20;99.90;;;;;;5381198;26;20004;-56
2024/04/10 08:20:07;;;;;;;1.85;0.60;;;12.00;99.90;;;;;;5381808;26;20015;-55
2024/04/10 08:22:33;;;;;;;1.55;0.55;;;12.20;99.90;;;;;;5381538;26;20004;-56
2024/04/10 08:24:59;;;;;;;5.75;0.70;;;12.20;99.90;;;;;;5379922;26;20012;-56
2024/04/10 08:27:24;;;;;;;2.75;1.00;;;11.90;99.90;;;;;;5376411;26;20081;-58
2024/04/10 08:29:50;;;;;;;3.28;0.77;;;12.10;1.00;;;;;;5358354;26;20020;-58
2024/04/10 08:32:15;;;;;;;0.77;0.47;;;12.00;1.00;;;;;;5378917;26;20041;-57
2024/04/10 08:34:41;;;;;;;1.60;0.77;;;12.00;1.00;;;;;;5381316;26;20000;-56
2024/04/10 08:37:07;;;;;;;2.03;0.75;;;12.10;1.00;;;;;;5379524;26;20374;-56
2024/04/10 08:39:32;;;;;;;2.33;1.33;;;12.10;1.00;;;;;;5381520;26;20341;-56
2024/04/10 08:41:59;;;;;;;2.03;0.63;;;12.10;1.00;;;;;;5379406;26;20087;-57
2024/04/10 08:44:26;;;;;;;1.92;1.00;;;12.00;1.00;;;;;;5380802;26;20004;-57
2024/04/10 08:46:55;;;;;;;2.83;1.23;;;12.20;99.90;;;;;;5381328;26;19996;-59
2024/04/10 08:49:23;;;;;;;2.85;0.95;;;12.30;1.00;;;;;;5381279;26;20010;-58
2024/04/10 08:51:50;;;;;;;2.40;0.85;;;12.40;99.90;;;;;;5381215;26;20353;-59
2024/04/10 08:54:19;;;;;;;0.73;0.60;;;12.50;1.00;;;;;;5379062;26;20444;-58
2024/04/10 08:56:45;;;;;;;1.02;0.75;;;12.50;99.90;;;;;;5380757;26;19997;-59
2024/04/10 08:59:10;;;;;;;1.60;0.85;;;12.40;99.90;;;;;;5381237;26;19996;-59
2024/04/10 09:01:37;;;;;;;1.55;0.47;;;12.50;99.90;;;;;;5381041;26;20020;-58
2024/04/10 09:04:14;;;;;;;2.53;0.50;;;12.60;99.90;;;;;;5379249;26;20000;-60
2024/04/10 09:06:40;;;;;;;1.30;0.50;;;12.70;99.90;;;;;;5381124;26;20004;-60
2024/04/10 09:09:07;;;;;;;0.57;0.40;;;12.40;99.90;;;;;;5380764;26;20417;-59
2024/04/10 09:11:33;;;;;;;2.28;1.00;;;12.60;99.90;;;;;;5380860;26;20000;-58
2024/04/10 09:14:10;;;;;;;1.23;0.88;;;12.90;99.90;;;;;;5376330;26;20018;-57
2024/04/10 09:16:37;;;;;;;1.10;0.70;;;12.80;99.90;;;;;;5408701;26;20339;-58
2024/04/10 09:19:16;;;;;;;1.88;0.60;;;13.10;99.90;;;;;;5378928;26;20000;-58
2024/04/10 09:21:43;;;;;;;0.77;0.50;;;13.10;99.90;;;;;;5371603;26;20012;-57
2024/04/10 09:24:09;;;;;;;1.10;0.88;;;13.20;99.90;;;;;;5381137;26;20000;-59
2024/04/10 09:26:36;;;;;;;2.55;0.98;;;13.10;99.90;;;;;;5381037;26;20033;-58
2024/04/10 09:29:08;;;;;;;1.33;0.80;;;13.30;99.90;;;;;;5380595;26;20011;-59
2024/04/10 09:31:34;;;;;;;2.22;0.73;;;13.50;99.90;;;;;;5381051;26;20461;-58
2024/04/10 09:34:00;;;;;;;0.65;0.65;;;13.50;99.90;;;;;;5379142;26;20072;-58
2024/04/10 09:36:30;;;;;;;2.28;0.68;;;13.60;99.90;;;;;;5381088;26;20012;-59
2024/04/10 09:39:00;;;;;;;1.05;0.65;;;13.60;99.90;;;;;;5366342;26;20354;-58
2024/04/10 09:41:28;;;;;;;0.60;0.30;;;13.50;99.90;;;;;;5368369;26;20004;-59
2024/04/10 09:43:59;;;;;;;1.60;1.08;;;13.30;99.90;;;;;;5379140;26;20004;-58
2024/04/10 09:46:33;;;;;;;2.60;1.00;;;13.50;99.90;;;;;;5380653;26;20014;-58
2024/04/10 09:49:06;;;;;;;;;;;13.60;99.90;;;;;;5381298;26;20077;-58
2024/04/10 09:51:32;;;;;;;1.60;1.27;;;13.60;99.90;;;;;;5380750;26;19933;-58
2024/04/10 09:53:58;;;;;;;2.88;1.08;;;13.70;99.90;;;;;;5381000;26;19996;-56
2024/04/10 09:56:24;;;;;;;0.60;0.60;;;13.70;99.90;;;;;;5380089;26;20004;-55
2024/04/10 09:58:50;;;;;;;1.80;1.23;;;13.50;99.90;;;;;;5380629;26;20077;-64
2024/04/10 10:02:48;;;;;;;2.45;0.68;;;13.40;99.90;;;;;;5506787;25;20350;-63
2024/04/10 10:05:20;;;;;;;1.70;1.00;;;13.40;99.90;;;;;;5494025;26;20001;-64
2024/04/10 10:07:46;;;;;;;1.70;0.65;;;13.40;99.90;;;;;;5506490;25;19998;-64
2024/04/10 10:10:12;;;;;;;3.22;1.00;;;13.30;99.90;;;;;;5494314;26;20071;-64
2024/04/10 10:12:38;;;;;;;1.02;0.93;;;13.30;99.90;;;;;;5492471;25;20012;-64
2024/04/10 10:15:10;;;;;;;1.80;0.98;;;13.30;99.90;;;;;;5495690;26;20074;-64
2024/04/10 10:17:37;;;;;;;1.55;1.10;;;13.30;99.90;;;;;;5500103;25;20070;-65
2024/04/10 10:20:03;;;;;;;1.48;0.65;;;13.40;99.90;;;;;;5497473;26;20013;-65
2024/04/10 10:22:28;;;;;;;1.45;0.70;;;13.40;99.90;;;;;;5498426;25;19998;-65
2024/04/10 10:24:58;;;;;;;1.23;0.70;;;13.40;99.90;;;;;;5505930;26;20002;-64
2024/04/10 10:27:24;;;;;;;3.13;0.70;;;13.30;99.90;;;;;;5499654;25;20030;-64
2024/04/10 10:29:50;;;;;;;1.10;0.40;;;13.30;99.90;;;;;;5476545;25;20021;-64
2024/04/10 10:32:19;;;;;;;0.93;0.63;;;13.30;99.90;;;;;;5472083;26;20011;-64
2024/04/10 10:34:46;;;;;;;1.48;0.80;;;13.40;99.90;;;;;;5478353;26;19999;-65
2024/04/10 10:37:11;;;;;;;0.80;0.80;;;13.40;99.90;;;;;;5486514;26;20009;-64
2024/04/10 10:39:43;;;;;;;2.03;0.85;;;13.50;99.90;;;;;;5506222;26;20466;-64
2024/04/10 10:42:09;;;;;;;2.25;0.80;;;13.50;99.90;;;;;;5506438;25;20037;-65
2024/04/10 10:44:35;;;;;;;1.35;1.10;;;13.50;99.90;;;;;;5499571;26;20003;-64
2024/04/10 10:47:07;;;;;;;1.63;0.60;;;13.60;99.90;;;;;;5497076;26;20444;-68
2024/04/10 10:49:33;;;;;;;3.70;1.25;;;13.70;99.90;;;;;;5491549;26;20439;-68
2024/04/10 10:51:59;;;;;;;2.70;1.10;;;13.60;99.90;;;;;;5505959;26;20012;-67
2024/04/10 10:54:25;;;;;;;3.35;1.20;;;13.60;99.90;;;;;;5488008;25;20097;-68
2024/04/10 10:56:51;;;;;;;3.05;1.08;;;13.60;99.90;;;;;;5498986;26;20005;-68
2024/04/10 10:59:16;;;;;;;1.40;1.20;;;13.70;99.90;;;;;;5506273;26;20013;-68
2024/04/10 11:01:42;;;;;;;4.45;1.27;;;13.70;99.90;;;;;;5494780;26;20109;-68
2024/04/10 11:04:15;;;;;;;1.52;1.10;;;13.70;99.90;;;;;;5506044;26;20357;-68
2024/04/10 11:06:41;;;;;;;1.30;1.08;;;13.60;99.90;;;;;;5503392;25;20008;-68
2024/04/10 11:09:09;;;;;;;2.40;1.70;;;13.50;99.90;;;;;;5490302;26;19999;-68
2024/04/10 11:11:38;;;;;;;3.22;1.75;;;13.70;99.90;;;;;;5498467;26;20013;-68
2024/04/10 11:14:04;;;;;;;3.95;1.50;;;13.70;99.90;;;;;;5473833;25;19999;-68
2024/04/10 11:16:31;;;;;;;2.03;1.40;;;13.70;99.90;;;;;;5480177;26;20003;-68
2024/04/10 11:18:58;;;;;;;4.03;1.52;;;13.60;99.90;;;;;;5478243;26;20010;-67
2024/04/10 11:21:24;;;;;;;4.65;1.67;;;13.50;99.90;;;;;;5475149;26;20448;-67
2024/04/10 11:23:50;;;;;;;3.35;1.10;;;13.50;1.00;;;;;;5488290;26;20002;-67
2024/04/10 11:26:15;;;;;;;4.03;1.65;;;13.40;1.00;;;;;;5489937;26;20073;-67
2024/04/10 11:28:41;;;;;;;3.17;1.00;;;13.40;1.00;;;;;;5464059;26;20450;-67
2024/04/10 11:31:10;;;;;;;2.85;1.50;;;13.10;99.90;;;;;;5490056;26;20009;-67
2024/04/10 11:33:36;;;;;;;2.58;1.27;;;13.20;99.90;;;;;;5468177;26;20075;-67
2024/04/10 11:36:02;;;;;;;3.78;1.30;;;13.10;99.90;;;;;;5482466;26;20076;-67
2024/04/10 11:38:28;;;;;;;3.50;1.70;;;13.00;99.90;;;;;;5489947;26;20393;-67
2024/04/10 11:40:54;;;;;;;1.83;1.50;;;13.00;99.90;;;;;;5466947;26;20034;-68
2024/04/10 11:43:19;;;;;;;3.15;1.60;;;13.00;99.90;;;;;;5486702;26;20074;-67
2024/04/10 11:45:49;;;;;;;8.38;1.92;;;12.90;99.90;;;;;;5489628;26;20006;-68
2024/04/10 11:48:14;;;;;;;4.80;1.60;;;13.10;99.90;;;;;;5467274;26;20087;-68
2024/04/10 11:50:40;;;;;;;3.13;1.60;;;13.10;99.90;;;;;;5469367;26;20013;-68
2024/04/10 11:53:06;;;;;;;3.28;1.60;;;13.10;99.90;;;;;;5489760;26;20455;-67
2024/04/10 11:55:32;;;;;;;7.10;2.33;;;13.20;99.90;;;;;;5489733;26;20009;-67
2024/04/10 11:57:57;;;;;;;4.63;1.80;;;13.30;99.90;;;;;;5489807;26;20013;-68
2024/04/10 12:00:23;;;;;;;3.10;1.58;;;13.20;99.90;;;;;;5487412;26;20002;-67
2024/04/10 12:02:48;;;;;;;3.50;1.33;;;13.40;99.90;;;;;;5489662;26;20002;-67
2024/04/10 12:05:14;;;;;;;2.55;1.48;;;13.20;99.90;;;;;;5464219;26;20006;-68
2024/04/10 12:07:41;;;;;;;5.50;1.58;;;13.00;99.90;;;;;;5489767;26;20009;-68
2024/04/10 12:10:08;;;;;;;2.88;1.73;;;13.10;99.90;;;;;;5489286;26;20017;-68
2024/04/10 12:12:34;;;;;;;3.13;1.63;;;13.30;99.90;;;;;;5489466;26;20465;-68
2024/04/10 12:15:00;;;;;;;3.13;1.30;;;13.30;99.90;;;;;;5489467;26;20002;-67
2024/04/10 12:17:26;;;;;;;3.00;1.27;;;13.30;99.90;;;;;;5489438;26;20337;-67
2024/04/10 12:19:52;;;;;;;1.92;1.10;;;13.40;99.90;;;;;;5487571;26;20017;-67
2024/04/10 12:22:18;;;;;;;2.65;1.17;;;13.20;99.90;;;;;;5487236;26;20017;-67
2024/04/10 12:24:43;;;;;;;9.00;1.02;;;13.30;99.90;;;;;;5469776;26;20002;-67
2024/04/10 12:27:09;;;;;;;1.63;0.90;;;13.10;99.90;;;;;;5487611;26;20009;-69
2024/04/10 12:29:34;;;;;;;2.28;0.75;;;13.10;99.90;;;;;;5489223;26;19998;-69
2024/04/10 12:32:01;;;;;;;1.10;0.80;;;13.10;1.00;;;;;;5485795;26;20011;-61
2024/04/10 12:34:27;;;;;;;0.90;0.60;;;13.10;1.00;;;;;;5489230;26;20020;-62
2024/04/10 12:39:37;;;;;;;1.15;0.60;;;13.20;1.00;;;;;;5467096;26;20009;-61
2024/04/10 12:42:04;;;;;;;0.88;0.30;;;13.20;1.00;;;;;;5488753;26;20107;-61
2024/04/10 12:44:30;;;;;;;1.95;0.50;;;13.30;1.00;;;;;;5488974;26;20010;-61
2024/04/10 12:46:58;;;;;;;4.35;1.25;;;13.40;1.00;;;;;;5482056;26;20322;-61
2024/04/10 12:49:25;;;;;;;1.95;0.70;;;13.30;99.90;;;;;;5485750;26;20005;-62
2024/04/10 12:51:51;;;;;;;1.55;0.70;;;13.30;99.90;;;;;;5467098;26;19999;-62
2024/04/10 12:54:17;;;;;;;0.85;0.82;;;13.40;1.00;;;;;;5484850;26;20078;-61